Time;durP1;ratioP1;P1;durP2;ratioP2;P2;SDS_P1;SDS_P2;PMS_P1;PMS_P2;Temp;Humidity;BMP_temperature;BMP_pressure;BME280_temperature;BME280_humidity;BME280_pressure;Samples;Min_cycle;Max_cycle;Signal;HPM_P1;HPM_P2
2021/05/27 00:00:21;;;;;;;2.55;1.00;;;;;;;10.34;73.12;99897.91;2198589;40;20042;-78
2021/05/27 00:01:52;;;;;;;3.85;1.35;;;;;;;10.35;73.18;99897.75;2198769;40;20035;-77
2021/05/27 00:03:23;;;;;;;2.45;0.93;;;;;;;10.39;73.06;99893.81;2196048;40;20320;-80
2021/05/27 00:04:54;;;;;;;3.40;0.93;;;;;;;10.39;73.00;99898.31;2199092;40;20042;-78
2021/05/27 00:06:25;;;;;;;2.97;0.93;;;;;;;10.32;72.96;99895.38;2195464;40;20039;-78
2021/05/27 00:07:56;;;;;;;6.28;1.30;;;;;;;10.35;73.08;99902.22;2199128;40;20411;-79
2021/05/27 00:09:29;;;;;;;3.30;1.30;;;;;;;10.37;73.09;99895.81;2197117;40;20057;-78
2021/05/27 00:11:00;;;;;;;3.75;1.10;;;;;;;10.36;73.16;99906.59;2196513;40;20031;-78
2021/05/27 00:12:31;;;;;;;2.65;1.20;;;;;;;10.38;73.23;99902.84;2197345;40;20046;-77
2021/05/27 00:14:03;;;;;;;3.92;1.10;;;;;;;10.39;73.10;99901.81;2198512;40;20031;-78
2021/05/27 00:15:34;;;;;;;2.75;1.08;;;;;;;10.42;73.10;99898.88;2195434;40;20054;-79
2021/05/27 00:17:05;;;;;;;4.43;1.17;;;;;;;10.41;73.13;99907.88;2199118;40;20558;-78
2021/05/27 00:18:36;;;;;;;4.38;1.85;;;;;;;10.42;73.12;99903.38;2197442;40;20055;-78
2021/05/27 00:20:10;;;;;;;4.18;1.50;;;;;;;10.37;72.91;99905.59;2198158;40;20523;-79
2021/05/27 00:21:41;;;;;;;3.78;1.38;;;;;;;10.35;73.12;99903.09;2191495;40;20050;-79
2021/05/27 00:23:12;;;;;;;4.28;1.25;;;;;;;10.34;73.18;99905.91;2196333;40;20038;-79
2021/05/27 00:24:44;;;;;;;2.70;1.00;;;;;;;10.34;73.20;99906.75;2179842;40;20039;-78
2021/05/27 00:26:15;;;;;;;2.35;1.10;;;;;;;10.34;73.20;99912.09;2186249;40;20091;-78
2021/05/27 00:27:47;;;;;;;3.00;1.20;;;;;;;10.33;73.26;99905.06;2197057;40;20050;-78
2021/05/27 00:29:18;;;;;;;5.85;1.25;;;;;;;10.30;73.48;99908.03;2199539;40;20031;-78
2021/05/27 00:30:49;;;;;;;3.78;1.25;;;;;;;10.31;73.44;99907.03;2198340;40;20393;-77
2021/05/27 00:32:20;;;;;;;4.35;1.73;;;;;;;10.32;73.36;99908.72;2198961;40;20311;-78
2021/05/27 00:33:51;;;;;;;3.75;1.33;;;;;;;10.33;73.41;99904.25;2198324;40;20046;-78
2021/05/27 00:35:23;;;;;;;2.83;1.23;;;;;;;10.33;73.34;99901.56;2197375;40;20098;-79
2021/05/27 00:36:54;;;;;;;4.32;1.30;;;;;;;10.33;73.25;99912.25;2195132;40;20031;-79
2021/05/27 00:38:26;;;;;;;2.97;1.30;;;;;;;10.33;73.27;99915.75;2196935;40;20046;-79
2021/05/27 00:39:58;;;;;;;6.25;1.17;;;;;;;10.34;73.19;99911.28;2199977;40;20023;-78
2021/05/27 00:41:29;;;;;;;4.30;1.45;;;;;;;10.32;73.09;99914.06;2199211;40;20450;-80
2021/05/27 00:43:00;;;;;;;6.63;1.33;;;;;;;10.31;73.07;99917.72;2165520;40;20047;-79
2021/05/27 00:44:33;;;;;;;5.18;1.50;;;;;;;10.31;73.15;99912.38;2186298;40;20047;-80
2021/05/27 00:46:04;;;;;;;4.13;1.20;;;;;;;10.27;73.28;99913.69;2200652;40;20042;-80
2021/05/27 00:47:35;;;;;;;2.92;1.40;;;;;;;10.26;73.28;99920.00;2198579;40;20038;-79
2021/05/27 00:49:07;;;;;;;3.70;1.30;;;;;;;10.26;73.48;99912.00;2198481;40;20031;-79
2021/05/27 00:50:38;;;;;;;4.28;1.63;;;;;;;10.21;73.53;99908.91;2196636;40;20595;-78
2021/05/27 00:52:13;;;;;;;4.28;1.40;;;;;;;10.22;73.40;99918.59;2199171;40;20046;-79
2021/05/27 00:53:43;;;;;;;3.60;1.30;;;;;;;10.20;73.66;99916.09;2198126;40;20084;-79
2021/05/27 00:55:17;;;;;;;3.95;1.60;;;;;;;10.20;73.65;99912.59;2199579;40;20041;-79
2021/05/27 00:56:52;;;;;;;4.30;1.48;;;;;;;10.18;73.66;99910.03;2198296;40;20046;-79
2021/05/27 00:58:23;;;;;;;4.82;1.50;;;;;;;10.19;73.61;99913.56;2193333;40;20043;-79
2021/05/27 00:59:55;;;;;;;3.53;1.50;;;;;;;10.17;73.60;99911.03;2195074;40;20415;-79
2021/05/27 01:01:26;;;;;;;3.88;1.33;;;;;;;10.17;73.58;99915.53;2199185;40;20062;-79
2021/05/27 01:02:57;;;;;;;3.90;1.50;;;;;;;10.14;73.62;99916.69;2199065;40;20435;-81
2021/05/27 01:04:29;;;;;;;6.22;1.45;;;;;;;10.16;73.70;99920.00;2199355;40;20403;-79
2021/05/27 01:06:01;;;;;;;4.78;1.70;;;;;;;10.15;73.81;99927.22;2198773;40;20157;-80
2021/05/27 01:07:32;;;;;;;4.20;1.33;;;;;;;10.11;73.89;99917.78;2199293;40;20045;-79
2021/05/27 01:09:05;;;;;;;3.72;1.63;;;;;;;10.08;73.91;99914.56;2198232;40;20125;-80
2021/05/27 01:10:38;;;;;;;3.92;1.48;;;;;;;10.07;73.91;99916.41;2200523;40;20773;-80
2021/05/27 01:12:10;;;;;;;4.82;1.73;;;;;;;10.04;73.99;99921.19;2198188;40;20067;-79
2021/05/27 01:13:41;;;;;;;4.07;1.67;;;;;;;10.04;74.15;99919.34;2199049;40;20067;-78
2021/05/27 01:15:28;;;;;;;4.20;1.90;;;;;;;10.04;74.18;99922.03;2198343;40;20308;-80
2021/05/27 01:16:59;;;;;;;4.45;1.60;;;;;;;10.00;74.50;99926.00;2199250;40;20081;-80
2021/05/27 01:18:30;;;;;;;5.32;1.50;;;;;;;9.99;74.29;99932.31;2199901;40;20043;-79
2021/05/27 01:20:01;;;;;;;4.70;1.98;;;;;;;9.97;74.31;99928.94;2201321;40;20386;-79
2021/05/27 01:21:34;;;;;;;4.65;2.03;;;;;;;9.95;74.43;99934.44;2198111;40;20055;-80
2021/05/27 01:23:06;;;;;;;3.83;1.80;;;;;;;9.93;74.46;99935.53;2199718;40;20050;-79
2021/05/27 01:24:37;;;;;;;3.80;1.58;;;;;;;9.91;74.47;99922.34;2197296;40;20106;-78
2021/05/27 01:26:10;;;;;;;5.43;1.88;;;;;;;9.94;74.37;99915.84;2199425;40;20069;-79
2021/05/27 01:27:40;;;;;;;3.80;1.55;;;;;;;9.93;74.53;99925.72;2153261;40;20698;-80
2021/05/27 01:29:12;;;;;;;4.38;1.73;;;;;;;9.94;74.39;99923.88;2195049;40;20035;-79
2021/05/27 01:30:44;;;;;;;4.40;1.98;;;;;;;9.92;74.43;99926.69;2197315;40;20613;-80
2021/05/27 01:32:15;;;;;;;4.38;1.95;;;;;;;9.91;74.47;99924.19;2199816;40;20113;-79
2021/05/27 01:33:46;;;;;;;4.80;2.30;;;;;;;9.88;74.58;99919.13;2192476;40;20063;-79
2021/05/27 01:35:20;;;;;;;3.45;1.63;;;;;;;9.87;74.72;99936.94;2193979;40;20043;-80
2021/05/27 01:36:51;;;;;;;3.40;1.60;;;;;;;9.88;74.65;99932.47;2194181;40;20087;-80
2021/05/27 01:38:25;;;;;;;5.30;2.00;;;;;;;9.84;74.74;99922.06;2200119;40;20051;-80
2021/05/27 01:39:56;;;;;;;6.13;1.95;;;;;;;9.84;74.49;99931.91;2197337;40;20047;-79
2021/05/27 01:41:27;;;;;;;6.35;2.25;;;;;;;9.86;74.76;99931.75;2192867;40;20035;-81
2021/05/27 01:42:58;;;;;;;4.22;2.08;;;;;;;9.84;74.68;99935.41;2178325;40;20460;-79
2021/05/27 01:44:29;;;;;;;4.07;1.88;;;;;;;9.83;74.87;99924.88;2175004;40;20039;-80
2021/05/27 01:46:01;;;;;;;5.05;2.28;;;;;;;9.83;74.97;99935.56;2169916;40;20051;-80
2021/05/27 01:47:32;;;;;;;3.58;1.83;;;;;;;9.79;74.67;99934.16;2195038;40;20041;-80
2021/05/27 01:49:03;;;;;;;4.28;1.70;;;;;;;9.79;74.88;99929.66;2199618;40;20521;-80
2021/05/27 01:50:35;;;;;;;3.75;1.70;;;;;;;9.77;75.01;99928.97;2187897;40;20035;-79
2021/05/27 01:52:06;;;;;;;4.97;2.20;;;;;;;9.75;75.23;99928.25;2191164;40;20027;-79
2021/05/27 01:53:38;;;;;;;3.50;1.90;;;;;;;9.76;75.16;99929.13;2196577;40;20353;-80
2021/05/27 01:55:10;;;;;;;3.20;1.42;;;;;;;9.75;74.95;99928.25;2199994;40;20027;-80
2021/05/27 01:56:41;;;;;;;3.63;1.80;;;;;;;9.74;74.93;99923.91;2197429;40;20101;-80
2021/05/27 01:58:14;;;;;;;5.25;2.33;;;;;;;9.71;75.07;99929.53;2199284;40;20326;-80
2021/05/27 01:59:46;;;;;;;4.63;2.03;;;;;;;9.69;75.03;99928.84;2197868;40;20125;-79
2021/05/27 02:01:18;;;;;;;5.00;2.10;;;;;;;9.67;75.14;99923.66;2198479;40;20069;-79
2021/05/27 02:02:49;;;;;;;5.75;2.30;;;;;;;9.66;75.11;99929.13;2198073;40;20059;-79
2021/05/27 02:04:20;;;;;;;5.05;2.00;;;;;;;9.67;75.21;99928.13;2197764;40;20126;-79
2021/05/27 02:05:51;;;;;;;3.47;1.70;;;;;;;9.66;75.13;99931.78;2191709;40;20390;-79
2021/05/27 02:07:23;;;;;;;5.30;1.75;;;;;;;9.65;74.99;99930.94;2196940;40;20035;-79
2021/05/27 02:09:08;;;;;;;4.85;1.75;;;;;;;9.65;75.16;99932.75;2198392;40;20042;-79
2021/05/27 02:10:39;;;;;;;3.63;1.80;;;;;;;9.63;75.14;99929.41;2195332;40;20332;-79
2021/05/27 02:12:11;;;;;;;4.78;1.70;;;;;;;9.65;75.10;99930.94;2195924;40;20076;-79
2021/05/27 02:13:42;;;;;;;3.80;1.65;;;;;;;9.63;74.92;99924.06;2198697;40;20035;-79
2021/05/27 02:15:14;;;;;;;4.10;1.65;;;;;;;9.63;75.10;99926.75;2198138;40;20049;-79
2021/05/27 02:16:46;;;;;;;5.15;1.77;;;;;;;9.61;75.08;99928.72;2200300;40;20042;-79
2021/05/27 02:18:17;;;;;;;4.97;1.90;;;;;;;9.59;75.26;99931.50;2197315;40;20098;-80
2021/05/27 02:19:48;;;;;;;3.72;1.80;;;;;;;9.58;75.26;99937.84;2199305;40;20407;-79
2021/05/27 02:21:19;;;;;;;4.03;1.80;;;;;;;9.57;75.31;99932.63;2197619;40;20042;-78
2021/05/27 02:22:51;;;;;;;4.18;2.10;;;;;;;9.57;75.35;99935.31;2199534;40;20316;-79
2021/05/27 02:24:22;;;;;;;6.40;2.88;;;;;;;9.56;75.49;99939.81;2199663;40;20046;-80
2021/05/27 02:25:54;;;;;;;4.75;1.80;;;;;;;9.55;75.44;99942.59;2200295;40;20050;-80
2021/05/27 02:27:25;;;;;;;4.93;2.42;;;;;;;9.53;75.46;99945.41;2200459;40;20080;-80
2021/05/27 02:28:59;;;;;;;4.00;1.73;;;;;;;9.52;75.56;99944.59;2195556;40;20038;-80
2021/05/27 02:30:30;;;;;;;4.38;2.00;;;;;;;9.50;75.50;99951.88;2197244;40;20046;-79
2021/05/27 02:32:01;;;;;;;3.60;1.75;;;;;;;9.48;75.66;99934.34;2199314;40;20308;-80
2021/05/27 02:33:33;;;;;;;5.18;2.40;;;;;;;9.47;75.71;99946.00;2196602;40;20050;-79
2021/05/27 02:35:05;;;;;;;3.50;2.00;;;;;;;9.47;75.66;99951.31;2199014;40;20038;-79
2021/05/27 02:36:37;;;;;;;12.48;3.33;;;;;;;9.42;75.55;99942.88;2197466;40;20041;-79
2021/05/27 02:38:08;;;;;;;4.22;2.00;;;;;;;9.45;75.61;99954.13;2199252;40;20315;-79
2021/05/27 02:39:40;;;;;;;3.63;1.60;;;;;;;9.45;75.68;99945.28;2178638;40;20506;-79
2021/05/27 02:41:12;;;;;;;4.68;1.70;;;;;;;9.42;75.68;99948.22;2195810;40;20768;-79
2021/05/27 02:42:43;;;;;;;5.53;1.98;;;;;;;9.42;75.57;99950.88;2191253;40;20028;-79
2021/05/27 02:44:14;;;;;;;3.33;1.50;;;;;;;9.40;75.68;99945.69;2197623;40;20038;-79
2021/05/27 02:45:46;;;;;;;4.40;1.85;;;;;;;9.46;75.53;99952.31;2194903;40;20050;-79
2021/05/27 02:47:17;;;;;;;4.32;1.77;;;;;;;9.48;75.54;99953.84;2199271;40;20035;-80
2021/05/27 02:48:48;;;;;;;4.40;1.52;;;;;;;9.50;75.36;99951.03;2197436;40;20030;-81
2021/05/27 02:50:20;;;;;;;4.03;1.33;;;;;;;9.56;75.21;99960.28;2199359;40;20078;-79
2021/05/27 02:51:51;;;;;;;4.72;1.85;;;;;;;9.51;75.08;99953.56;2194077;40;20042;-79
2021/05/27 02:53:23;;;;;;;3.92;1.70;;;;;;;9.52;75.10;99947.25;2197434;40;20338;-79
2021/05/27 02:54:55;;;;;;;3.85;1.70;;;;;;;9.56;75.16;99944.28;2198807;40;20039;-80
2021/05/27 02:56:27;;;;;;;3.60;1.70;;;;;;;9.57;74.91;99951.31;2197460;40;20035;-80
2021/05/27 02:57:58;;;;;;;5.90;1.90;;;;;;;9.56;74.96;99950.47;2199443;40;20038;-79
2021/05/27 02:59:29;;;;;;;4.10;1.50;;;;;;;9.58;75.08;99942.31;2197627;40;20417;-79
2021/05/27 03:01:01;;;;;;;4.10;1.52;;;;;;;9.62;74.88;99949.91;2198211;40;20330;-80
2021/05/27 03:02:32;;;;;;;5.63;1.73;;;;;;;9.59;74.68;99944.84;2195949;40;20031;-79
2021/05/27 03:04:03;;;;;;;4.72;1.88;;;;;;;9.59;74.88;99949.34;2200483;40;20043;-79
2021/05/27 03:05:34;;;;;;;3.47;1.92;;;;;;;9.58;74.76;99947.66;2199257;40;20130;-80
2021/05/27 03:07:06;;;;;;;4.05;1.90;;;;;;;9.64;74.84;99947.09;2200179;40;20050;-79
2021/05/27 03:08:37;;;;;;;6.18;1.80;;;;;;;9.64;74.81;99952.44;2198332;40;20303;-80
2021/05/27 03:10:10;;;;;;;4.10;1.42;;;;;;;9.68;74.70;99945.84;2200566;40;20035;-80
2021/05/27 03:11:42;;;;;;;4.55;1.60;;;;;;;9.74;74.54;99950.59;2149495;40;20621;-80
2021/05/27 03:13:13;;;;;;;4.13;2.03;;;;;;;9.77;74.58;99942.31;2197095;40;20031;-80
2021/05/27 03:14:45;;;;;;;3.45;1.55;;;;;;;9.81;74.16;99942.88;2172069;40;20039;-80
2021/05/27 03:16:16;;;;;;;6.28;1.90;;;;;;;9.79;74.30;99944.84;2199004;40;20031;-80
2021/05/27 03:17:47;;;;;;;5.20;1.90;;;;;;;9.75;74.41;99949.63;2198191;40;20299;-80
2021/05/27 03:19:19;;;;;;;2.85;1.42;;;;;;;9.75;74.50;99954.13;2199495;40;20055;-79
2021/05/27 03:20:50;;;;;;;3.85;1.60;;;;;;;9.76;74.41;99953.16;2198120;40;20062;-80
2021/05/27 03:22:21;;;;;;;4.70;1.98;;;;;;;9.72;74.44;99957.94;2195124;40;20039;-80
2021/05/27 03:23:53;;;;;;;4.20;1.92;;;;;;;9.66;74.58;99974.50;2198074;40;20053;-80
2021/05/27 03:25:25;;;;;;;4.95;2.15;;;;;;;9.58;74.70;99969.00;2199248;40;20095;-80
2021/05/27 03:26:56;;;;;;;4.53;1.90;;;;;;;9.54;74.97;99968.47;2192347;40;20055;-80
2021/05/27 03:28:27;;;;;;;4.93;2.10;;;;;;;9.52;75.12;99963.28;2197012;40;20404;-80
2021/05/27 03:29:59;;;;;;;5.10;1.95;;;;;;;9.52;74.97;99968.59;2195734;40;20585;-80
2021/05/27 03:31:30;;;;;;;3.97;2.00;;;;;;;9.55;74.92;99966.63;2199652;40;20081;-79
2021/05/27 03:33:02;;;;;;;4.25;1.60;;;;;;;9.55;74.96;99970.16;2197704;40;20316;-79
2021/05/27 03:34:34;;;;;;;4.72;1.92;;;;;;;9.60;74.80;99973.22;2200147;40;20039;-81
2021/05/27 03:36:07;;;;;;;5.05;2.45;;;;;;;9.63;74.70;99961.44;2192879;40;20059;-79
2021/05/27 03:37:38;;;;;;;3.50;1.63;;;;;;;9.68;74.79;99967.19;2193527;40;20051;-80
2021/05/27 03:39:09;;;;;;;4.20;1.55;;;;;;;9.68;74.63;99959.19;2193028;40;20375;-81
2021/05/27 03:40:41;;;;;;;4.88;1.80;;;;;;;9.70;74.52;99965.22;2195768;40;20056;-79
2021/05/27 03:42:13;;;;;;;3.65;1.90;;;;;;;9.73;74.43;99969.44;2196761;40;20054;-79
2021/05/27 03:43:44;;;;;;;4.45;1.92;;;;;;;9.75;74.51;99964.81;2193257;40;20095;-79
2021/05/27 03:45:18;;;;;;;4.63;2.50;;;;;;;9.77;74.27;99969.00;2193153;40;20583;-79
2021/05/27 03:46:51;;;;;;;8.13;2.03;;;;;;;9.80;74.38;99967.88;2198692;40;20141;-79
2021/05/27 03:48:22;;;;;;;4.10;1.90;;;;;;;9.84;74.19;99970.13;2200977;40;20082;-77
2021/05/27 03:49:54;;;;;;;4.47;2.40;;;;;;;9.83;74.15;99976.44;2199942;40;20043;-77
2021/05/27 03:51:25;;;;;;;3.85;1.67;;;;;;;9.80;74.12;99981.22;2195577;40;20047;-78
2021/05/27 03:52:58;;;;;;;3.65;1.58;;;;;;;9.79;74.29;99977.72;2197113;40;20066;-78
2021/05/27 03:54:29;;;;;;;4.95;2.22;;;;;;;9.82;74.31;99977.44;2195244;40;20137;-77
2021/05/27 03:56:01;;;;;;;4.88;2.00;;;;;;;9.82;74.18;99988.09;2196095;40;20175;-77
2021/05/27 03:57:32;;;;;;;5.50;1.90;;;;;;;9.83;74.00;99978.28;2195444;40;20051;-77
2021/05/27 04:00:53;;;;;;;6.18;2.13;;;;;;;9.79;74.15;99982.22;2189737;40;20044;-78
2021/05/27 04:02:24;;;;;;;4.82;2.28;;;;;;;9.79;74.08;99985.75;2189292;40;20035;-77
2021/05/27 04:07:30;;;;;;;4.43;2.00;;;;;;;9.68;74.30;99992.03;2195954;40;20312;-77
2021/05/27 04:09:03;;;;;;;3.60;1.63;;;;;;;9.66;74.51;99993.19;2196110;40;20039;-77
2021/05/27 04:10:34;;;;;;;3.70;1.80;;;;;;;9.64;74.57;99995.13;2196580;40;20075;-78
2021/05/27 04:13:56;;;;;;;5.50;1.73;;;;;;;9.68;74.42;99996.56;2191476;40;20051;-78
2021/05/27 04:15:30;;;;;;;4.60;1.80;;;;;;;9.70;74.92;99993.72;2190475;40;20085;-78
2021/05/27 04:17:01;;;;;;;4.30;1.90;;;;;;;9.77;74.48;100001.03;2192100;40;20047;-77
2021/05/27 04:18:33;;;;;;;5.50;2.00;;;;;;;9.84;74.11;99996.00;2191264;40;20051;-77
2021/05/27 04:20:05;;;;;;;4.75;2.20;;;;;;;9.90;73.92;99990.06;2197213;40;20047;-77
2021/05/27 04:21:37;;;;;;;5.50;2.45;;;;;;;9.91;73.95;99996.28;2175954;40;20044;-79
2021/05/27 04:23:11;;;;;;;3.88;1.75;;;;;;;9.95;74.10;99989.66;2190183;40;20035;-78
2021/05/27 04:24:42;;;;;;;5.05;2.00;;;;;;;9.93;73.71;99995.16;2184567;40;20077;-77
2021/05/27 04:26:17;;;;;;;4.88;2.20;;;;;;;9.90;73.98;100000.75;2188942;40;20042;-79
2021/05/27 04:27:50;;;;;;;5.28;2.38;;;;;;;9.88;74.06;99991.22;2195973;40;20126;-78
2021/05/27 04:29:21;;;;;;;5.78;2.35;;;;;;;9.83;74.28;99994.31;2197793;40;20638;-78
2021/05/27 04:31:09;;;;;;;5.13;2.00;;;;;;;9.80;74.32;99995.44;2195205;40;20427;-78
2021/05/27 04:32:55;;;;;;;5.03;2.00;;;;;;;9.79;74.44;99998.22;2197374;40;20039;-78
2021/05/27 04:34:29;;;;;;;4.03;1.80;;;;;;;9.78;74.42;99988.53;2197197;40;20047;-77
2021/05/27 04:36:00;;;;;;;5.80;2.22;;;;;;;9.74;74.65;100001.31;2195112;40;20062;-78
2021/05/27 04:37:31;;;;;;;7.25;2.85;;;;;;;9.74;74.50;100001.31;2197906;40;20035;-77
2021/05/27 04:39:03;;;;;;;6.70;2.70;;;;;;;9.78;74.74;99997.41;2183812;40;20403;-78
2021/05/27 04:40:36;;;;;;;4.60;2.60;;;;;;;9.90;74.34;100002.59;2198058;40;20035;-78
2021/05/27 04:42:07;;;;;;;5.57;2.92;;;;;;;9.93;74.29;100000.50;2193060;40;20047;-78
2021/05/27 04:43:40;;;;;;;4.75;2.33;;;;;;;9.93;74.44;100003.16;2192069;40;20094;-78
2021/05/27 04:45:12;;;;;;;5.90;2.58;;;;;;;9.95;74.18;100013.69;2189434;40;20058;-77
2021/05/27 04:46:43;;;;;;;4.25;2.42;;;;;;;9.98;74.17;100010.75;2197530;40;20031;-77
2021/05/27 04:48:16;;;;;;;9.95;2.33;;;;;;;9.95;73.78;100003.00;2190326;40;20043;-79
2021/05/27 04:49:47;;;;;;;3.90;2.00;;;;;;;9.89;73.98;100016.94;2195712;40;20031;-79
2021/05/27 04:51:18;;;;;;;4.47;2.00;;;;;;;9.90;74.03;100007.94;2197275;40;20035;-78
2021/05/27 04:52:50;;;;;;;4.93;2.17;;;;;;;9.94;74.01;100004.84;2196480;40;20126;-78
2021/05/27 04:54:21;;;;;;;4.78;2.10;;;;;;;10.01;73.86;100014.94;2197835;40;20039;-79
2021/05/27 04:55:53;;;;;;;5.10;2.08;;;;;;;9.99;73.53;100013.25;2196250;40;20047;-78
2021/05/27 04:57:24;;;;;;;4.85;1.98;;;;;;;9.98;73.66;100029.44;2192437;40;20050;-79
2021/05/27 04:58:56;;;;;;;7.03;2.22;;;;;;;9.99;73.51;100017.78;2191336;40;20044;-78
2021/05/27 05:00:28;;;;;;;4.22;1.60;;;;;;;9.98;73.55;100010.75;2194589;40;20047;-78
2021/05/27 05:01:59;;;;;;;7.90;1.90;;;;;;;10.02;73.53;100016.63;2197412;40;20039;-78
2021/05/27 05:03:30;;;;;;;6.90;2.25;;;;;;;10.06;73.32;100015.38;2195794;40;20055;-80
2021/05/27 05:05:02;;;;;;;6.03;2.60;;;;;;;10.02;73.17;100028.16;2198103;40;20031;-78
2021/05/27 05:06:33;;;;;;;6.65;2.17;;;;;;;10.02;73.42;100020.13;2195980;40;20055;-78
2021/05/27 05:08:07;;;;;;;5.43;1.67;;;;;;;10.03;73.46;100021.81;2196669;40;20465;-79
2021/05/27 05:09:39;;;;;;;4.30;1.92;;;;;;;10.03;73.26;100018.31;2196381;40;20072;-78
2021/05/27 05:11:10;;;;;;;5.65;2.40;;;;;;;10.05;73.35;100030.56;2197388;40;20623;-79
2021/05/27 05:12:45;;;;;;;6.20;2.50;;;;;;;10.06;73.45;100021.56;2195832;40;20050;-78
2021/05/27 05:14:17;;;;;;;6.82;2.05;;;;;;;10.13;73.06;100028.00;2191310;40;20043;-78
2021/05/27 05:15:49;;;;;;;4.07;1.83;;;;;;;10.12;73.35;100031.66;2191718;40;20051;-78
2021/05/27 05:17:20;;;;;;;3.65;1.70;;;;;;;10.18;73.35;100022.25;2197122;40;20418;-80
2021/05/27 05:18:51;;;;;;;4.85;2.10;;;;;;;10.23;73.02;100024.47;2195759;40;20054;-78
2021/05/27 05:20:25;;;;;;;4.22;1.90;;;;;;;10.26;73.05;100030.38;2195813;40;20039;-78
2021/05/27 05:21:57;;;;;;;6.47;2.00;;;;;;;10.35;72.82;100026.00;2197678;40;20039;-78
2021/05/27 05:23:28;;;;;;;6.43;1.60;;;;;;;10.39;72.71;100029.28;2195691;40;20140;-79
2021/05/27 05:25:00;;;;;;;3.58;1.50;;;;;;;10.47;72.46;100028.56;2197762;40;20031;-80
2021/05/27 05:26:32;;;;;;;6.10;2.17;;;;;;;10.47;72.26;100031.22;2195160;40;20030;-79
2021/05/27 05:28:04;;;;;;;3.53;1.77;;;;;;;10.42;72.21;100029.81;2196829;40;20552;-78
2021/05/27 05:29:36;;;;;;;4.82;2.00;;;;;;;10.37;72.13;100024.06;2195218;40;20030;-79
2021/05/27 05:31:07;;;;;;;4.35;1.95;;;;;;;10.40;72.30;100028.28;2190840;40;20032;-78
2021/05/27 05:32:39;;;;;;;4.55;2.33;;;;;;;10.39;71.92;100027.44;2189467;40;20043;-78
2021/05/27 05:34:10;;;;;;;6.95;2.30;;;;;;;10.35;71.58;100020.66;2197197;40;20039;-78
2021/05/27 05:35:44;;;;;;;4.45;2.40;;;;;;;10.35;71.43;100020.66;2192520;40;20319;-79
2021/05/27 05:37:15;;;;;;;5.18;2.03;;;;;;;10.35;71.10;100035.84;2197162;40;20054;-78
2021/05/27 05:38:47;;;;;;;4.95;1.95;;;;;;;10.37;70.80;100023.19;2196129;40;20062;-77
2021/05/27 05:40:21;;;;;;;4.68;2.30;;;;;;;10.41;70.52;100033.47;2197275;40;20034;-77
2021/05/27 05:41:52;;;;;;;6.15;2.42;;;;;;;10.48;70.56;100024.91;2189492;40;20098;-78
2021/05/27 05:43:24;;;;;;;6.32;1.80;;;;;;;10.56;70.24;100038.38;2193321;40;20042;-78
2021/05/27 05:44:56;;;;;;;4.60;2.10;;;;;;;10.65;70.06;100042.00;2195571;40;20331;-79
2021/05/27 05:46:27;;;;;;;5.47;1.98;;;;;;;10.65;69.75;100037.50;2197249;40;20043;-78
2021/05/27 05:47:59;;;;;;;6.53;2.40;;;;;;;10.71;69.63;100044.94;2195493;40;20058;-79
2021/05/27 05:49:30;;;;;;;7.43;2.38;;;;;;;10.73;69.39;100048.31;2196799;40;20038;-79
2021/05/27 05:51:01;;;;;;;5.47;2.53;;;;;;;10.82;69.28;100043.06;2189574;40;20069;-77
2021/05/27 05:52:33;;;;;;;5.50;2.13;;;;;;;10.86;68.98;100045.31;2190997;40;20316;-79
2021/05/27 05:54:04;;;;;;;4.40;1.88;;;;;;;10.86;69.08;100042.63;2193336;40;20050;-78
2021/05/27 05:55:35;;;;;;;5.50;2.10;;;;;;;10.92;69.01;100039.34;2196747;40;20059;-78
2021/05/27 05:57:07;;;;;;;4.90;1.50;;;;;;;10.97;68.79;100043.44;2195189;40;20058;-79
2021/05/27 05:58:38;;;;;;;3.40;1.60;;;;;;;10.99;68.69;100042.28;2197173;40;20042;-79
2021/05/27 06:00:12;;;;;;;4.93;2.13;;;;;;;11.06;68.46;100047.91;2194998;40;20303;-78
2021/05/27 06:01:43;;;;;;;4.22;2.20;;;;;;;11.00;68.36;100040.47;2197018;40;20041;-77
2021/05/27 06:03:14;;;;;;;7.50;2.10;;;;;;;10.93;68.14;100040.22;2195546;40;20053;-78
2021/05/27 06:04:46;;;;;;;4.63;1.60;;;;;;;10.90;68.20;100029.81;2196316;40;20087;-78
2021/05/27 06:06:17;;;;;;;4.07;1.75;;;;;;;10.93;68.13;100030.34;2194561;40;20039;-78
2021/05/27 06:07:48;;;;;;;5.88;1.90;;;;;;;10.98;68.28;100037.94;2196553;40;20031;-78
2021/05/27 06:09:19;;;;;;;5.63;1.98;;;;;;;11.04;68.09;100037.38;2194926;40;21730;-78
2021/05/27 06:10:50;;;;;;;6.88;1.58;;;;;;;11.10;67.72;100038.56;2196428;40;20549;-78
2021/05/27 06:12:22;;;;;;;4.70;1.70;;;;;;;11.19;67.28;100043.03;2194048;40;20055;-78
2021/05/27 06:13:54;;;;;;;5.40;1.42;;;;;;;11.24;66.76;100042.63;2200265;40;20086;-78
2021/05/27 06:15:28;;;;;;;4.90;1.70;;;;;;;11.25;66.58;100038.91;2199936;40;20545;-79
2021/05/27 06:16:59;;;;;;;6.57;1.92;;;;;;;11.30;66.24;100042.00;2202981;40;20042;-78
2021/05/27 06:18:30;;;;;;;3.95;1.60;;;;;;;11.30;65.86;100044.69;2195775;40;20411;-78
2021/05/27 06:20:02;;;;;;;4.47;1.50;;;;;;;11.32;65.54;100049.88;2196560;40;20247;-78
2021/05/27 06:21:34;;;;;;;6.25;1.98;;;;;;;11.35;65.64;100045.06;2194937;40;20109;-77
2021/05/27 06:23:05;;;;;;;7.63;2.10;;;;;;;11.44;65.52;100039.78;2194552;40;20400;-79
2021/05/27 06:24:37;;;;;;;3.42;1.60;;;;;;;11.51;65.42;100044.41;2193959;40;20054;-79
2021/05/27 06:26:08;;;;;;;5.22;1.60;;;;;;;11.50;65.03;100040.03;2201336;40;20035;-78
2021/05/27 06:27:39;;;;;;;3.67;1.45;;;;;;;11.51;64.75;100043.59;2198636;40;20076;-79
2021/05/27 06:29:11;;;;;;;3.63;1.50;;;;;;;11.49;64.57;100050.91;2197151;40;20461;-79
2021/05/27 06:30:43;;;;;;;4.97;1.75;;;;;;;11.53;64.75;100046.91;2195869;40;20047;-78
2021/05/27 06:32:14;;;;;;;7.85;3.90;;;;;;;11.63;64.79;100047.69;2196538;40;20058;-78
2021/05/27 06:33:46;;;;;;;6.32;2.17;;;;;;;11.67;64.57;100054.44;2192634;40;20051;-78
2021/05/27 06:35:17;;;;;;;3.70;1.45;;;;;;;11.66;64.62;100052.75;2190467;40;20044;-78
2021/05/27 06:36:49;;;;;;;4.50;1.45;;;;;;;11.74;64.49;100056.50;2190608;40;20065;-78
2021/05/27 06:38:20;;;;;;;4.20;1.40;;;;;;;11.80;64.46;100058.59;2196512;40;20047;-78
2021/05/27 06:39:51;;;;;;;4.57;1.60;;;;;;;11.84;64.22;100063.50;2195377;40;20136;-79
2021/05/27 06:41:23;;;;;;;4.13;1.50;;;;;;;11.93;64.22;100058.22;2195865;40;20035;-81
2021/05/27 06:42:54;;;;;;;3.58;1.40;;;;;;;11.91;63.67;100053.00;2197765;40;20043;-78
2021/05/27 06:44:26;;;;;;;6.63;1.50;;;;;;;11.88;63.81;100061.34;2194413;40;20087;-78
2021/05/27 06:45:58;;;;;;;6.10;1.70;;;;;;;11.86;63.53;100052.63;2198269;40;20591;-76
2021/05/27 06:47:29;;;;;;;5.55;2.08;;;;;;;11.82;63.71;100057.44;2194185;40;20054;-78
2021/05/27 06:49:00;;;;;;;4.38;1.48;;;;;;;11.92;63.41;100062.72;2197563;40;20122;-78
2021/05/27 06:50:35;;;;;;;5.35;2.20;;;;;;;12.01;62.80;100051.09;2194539;40;20030;-76
2021/05/27 06:52:07;;;;;;;5.85;1.80;;;;;;;11.97;62.40;100065.81;2197967;40;20023;-78
2021/05/27 06:53:38;;;;;;;4.55;1.55;;;;;;;12.08;62.00;100050.50;2194326;40;20031;-78
2021/05/27 06:55:10;;;;;;;5.05;1.80;;;;;;;12.23;61.64;100051.63;2196369;40;20035;-78
2021/05/27 06:56:42;;;;;;;3.28;1.40;;;;;;;12.28;61.39;100057.34;2182548;40;20051;-76
2021/05/27 06:58:15;;;;;;;3.50;1.30;;;;;;;12.27;61.20;100047.66;2197674;40;20047;-78
2021/05/27 06:59:46;;;;;;;5.10;1.40;;;;;;;12.25;61.31;100041.59;2196448;40;20055;-78
2021/05/27 07:01:18;;;;;;;5.57;1.45;;;;;;;12.28;61.40;100040.44;2196605;40;20058;-76
2021/05/27 07:02:51;;;;;;;5.60;1.80;;;;;;;12.41;61.08;100038.22;2196149;40;20031;-78
2021/05/27 07:04:22;;;;;;;4.13;1.70;;;;;;;12.54;61.02;100036.94;2196787;40;20033;-77
2021/05/27 07:05:54;;;;;;;3.97;1.20;;;;;;;12.72;61.20;100039.56;2193734;40;20062;-78
2021/05/27 07:07:24;;;;;;;3.47;1.50;;;;;;;12.80;60.64;100037.75;2195828;40;20051;-77
2021/05/27 07:08:56;;;;;;;7.05;1.85;;;;;;;12.79;60.15;100028.03;2193597;40;20043;-78
2021/05/27 07:10:29;;;;;;;6.40;2.08;;;;;;;12.77;59.99;100029.19;2198505;40;20030;-77
2021/05/27 07:12:00;;;;;;;4.28;1.50;;;;;;;12.82;59.93;100029.56;2196881;40;20045;-78
2021/05/27 07:13:31;;;;;;;4.70;1.30;;;;;;;12.93;60.03;100037.34;2196468;40;20043;-76
2021/05/27 07:15:03;;;;;;;4.20;1.55;;;;;;;12.99;59.21;100029.63;2193957;40;20058;-76
2021/05/27 07:16:36;;;;;;;6.05;1.52;;;;;;;13.19;58.60;100038.25;2196541;40;20039;-77
2021/05/27 07:18:08;;;;;;;3.63;1.50;;;;;;;13.26;58.21;100031.25;2194769;40;20423;-78
2021/05/27 07:19:38;;;;;;;8.25;1.80;;;;;;;13.23;57.68;100037.75;2197584;40;20047;-78